sensor_id;sensor_type;location;lat;lon;timestamp;P1;durP1;ratioP1;P2;durP2;ratioP2
54831;SDS011;40730;53.068;6.572;2022-08-11T00:01:18;7.95;;;7.13;;
54831;SDS011;40730;53.068;6.572;2022-08-11T00:03:47;8.73;;;7.18;;
54831;SDS011;40730;53.068;6.572;2022-08-11T00:06:34;8.32;;;6.82;;
54831;SDS011;40730;53.068;6.572;2022-08-11T00:09:02;9.05;;;7.35;;
54831;SDS011;40730;53.068;6.572;2022-08-11T00:11:31;7.40;;;6.60;;
54831;SDS011;40730;53.068;6.572;2022-08-11T00:13:58;9.75;;;6.43;;
54831;SDS011;40730;53.068;6.572;2022-08-11T00:16:25;9.32;;;6.50;;
54831;SDS011;40730;53.068;6.572;2022-08-11T00:18:52;8.68;;;7.35;;
54831;SDS011;40730;53.068;6.572;2022-08-11T00:21:20;9.27;;;7.88;;
54831;SDS011;40730;53.068;6.572;2022-08-11T00:23:54;9.48;;;7.13;;
54831;SDS011;40730;53.068;6.572;2022-08-11T00:26:22;9.70;;;8.43;;
54831;SDS011;40730;53.068;6.572;2022-08-11T00:28:49;10.77;;;9.10;;
54831;SDS011;40730;53.068;6.572;2022-08-11T00:31:21;10.27;;;8.43;;
54831;SDS011;40730;53.068;6.572;2022-08-11T00:33:55;14.85;;;11.30;;
54831;SDS011;40730;53.068;6.572;2022-08-11T00:36:27;9.68;;;8.77;;
54831;SDS011;40730;53.068;6.572;2022-08-11T00:39:03;11.20;;;9.90;;
54831;SDS011;40730;53.068;6.572;2022-08-11T00:44:06;13.43;;;11.45;;
54831;SDS011;40730;53.068;6.572;2022-08-11T00:49:45;12.10;;;10.30;;
54831;SDS011;40730;53.068;6.572;2022-08-11T00:52:31;17.60;;;12.27;;
54831;SDS011;40730;53.068;6.572;2022-08-11T00:58:10;11.55;;;10.25;;
54831;SDS011;40730;53.068;6.572;2022-08-11T01:01:07;13.15;;;11.07;;
54831;SDS011;40730;53.068;6.572;2022-08-11T01:06:45;11.48;;;10.27;;
54831;SDS011;40730;53.068;6.572;2022-08-11T01:18:15;10.60;;;9.45;;
54831;SDS011;40730;53.068;6.572;2022-08-11T01:23:44;11.45;;;8.93;;
54831;SDS011;40730;53.068;6.572;2022-08-11T01:32:29;8.45;;;7.57;;
54831;SDS011;40730;53.068;6.572;2022-08-11T01:38:32;9.32;;;7.63;;
54831;SDS011;40730;53.068;6.572;2022-08-11T01:46:55;13.63;;;10.15;;
54831;SDS011;40730;53.068;6.572;2022-08-11T01:50:08;9.48;;;7.40;;
54831;SDS011;40730;53.068;6.572;2022-08-11T01:55:19;10.35;;;9.25;;
54831;SDS011;40730;53.068;6.572;2022-08-11T02:00:34;14.10;;;9.65;;
54831;SDS011;40730;53.068;6.572;2022-08-11T02:03:42;11.63;;;8.48;;
54831;SDS011;40730;53.068;6.572;2022-08-11T02:06:15;12.10;;;7.30;;
54831;SDS011;40730;53.068;6.572;2022-08-11T02:12:54;10.52;;;7.25;;
54831;SDS011;40730;53.068;6.572;2022-08-11T02:15:11;20.70;;;11.82;;
54831;SDS011;40730;53.068;6.572;2022-08-11T02:20:22;12.52;;;9.88;;
54831;SDS011;40730;53.068;6.572;2022-08-11T02:23:16;14.85;;;11.60;;
54831;SDS011;40730;53.068;6.572;2022-08-11T02:29:00;13.00;;;9.60;;
54831;SDS011;40730;53.068;6.572;2022-08-11T02:31:46;10.48;;;8.77;;
54831;SDS011;40730;53.068;6.572;2022-08-11T02:34:44;10.10;;;8.05;;
54831;SDS011;40730;53.068;6.572;2022-08-11T02:37:17;20.42;;;15.25;;
54831;SDS011;40730;53.068;6.572;2022-08-11T02:42:37;17.40;;;13.02;;
54831;SDS011;40730;53.068;6.572;2022-08-11T02:51:02;14.10;;;10.20;;
54831;SDS011;40730;53.068;6.572;2022-08-11T03:10:45;16.47;;;10.50;;
54831;SDS011;40730;53.068;6.572;2022-08-11T03:16:59;17.05;;;11.95;;
54831;SDS011;40730;53.068;6.572;2022-08-11T03:24:57;13.70;;;11.07;;
54831;SDS011;40730;53.068;6.572;2022-08-11T03:33:46;14.32;;;10.02;;
54831;SDS011;40730;53.068;6.572;2022-08-11T03:42:26;5.90;;;4.35;;
54831;SDS011;40730;53.068;6.572;2022-08-11T03:45:32;6.57;;;4.95;;
54831;SDS011;40730;53.068;6.572;2022-08-11T03:48:19;9.00;;;6.63;;
54831;SDS011;40730;53.068;6.572;2022-08-11T03:50:53;5.68;;;4.60;;
54831;SDS011;40730;53.068;6.572;2022-08-11T04:13:39;14.52;;;9.65;;
54831;SDS011;40730;53.068;6.572;2022-08-11T04:34:43;12.95;;;9.40;;
54831;SDS011;40730;53.068;6.572;2022-08-11T05:01:31;17.40;;;12.18;;
54831;SDS011;40730;53.068;6.572;2022-08-11T05:04:19;22.88;;;15.73;;
54831;SDS011;40730;53.068;6.572;2022-08-11T05:12:51;22.33;;;16.15;;
54831;SDS011;40730;53.068;6.572;2022-08-11T05:15:26;26.00;;;17.05;;
54831;SDS011;40730;53.068;6.572;2022-08-11T05:18:25;17.95;;;13.60;;
54831;SDS011;40730;53.068;6.572;2022-08-11T05:21:12;23.48;;;16.13;;
54831;SDS011;40730;53.068;6.572;2022-08-11T05:24:02;19.92;;;15.35;;
54831;SDS011;40730;53.068;6.572;2022-08-11T05:26:52;17.10;;;14.43;;
54831;SDS011;40730;53.068;6.572;2022-08-11T05:29:41;17.02;;;13.13;;
54831;SDS011;40730;53.068;6.572;2022-08-11T05:32:34;20.13;;;13.80;;
54831;SDS011;40730;53.068;6.572;2022-08-11T05:35:40;19.88;;;14.00;;
54831;SDS011;40730;53.068;6.572;2022-08-11T05:38:11;19.55;;;13.52;;
54831;SDS011;40730;53.068;6.572;2022-08-11T05:40:59;18.85;;;14.05;;
54831;SDS011;40730;53.068;6.572;2022-08-11T05:43:44;19.77;;;13.67;;
54831;SDS011;40730;53.068;6.572;2022-08-11T05:46:37;19.45;;;14.75;;
54831;SDS011;40730;53.068;6.572;2022-08-11T05:49:23;16.95;;;13.98;;
54831;SDS011;40730;53.068;6.572;2022-08-11T05:52:20;20.55;;;12.93;;
54831;SDS011;40730;53.068;6.572;2022-08-11T05:55:14;18.52;;;13.73;;
54831;SDS011;40730;53.068;6.572;2022-08-11T05:58:02;19.00;;;13.15;;
54831;SDS011;40730;53.068;6.572;2022-08-11T06:00:29;17.30;;;11.93;;
54831;SDS011;40730;53.068;6.572;2022-08-11T06:02:59;17.67;;;12.70;;
54831;SDS011;40730;53.068;6.572;2022-08-11T06:05:35;18.98;;;13.05;;
54831;SDS011;40730;53.068;6.572;2022-08-11T06:08:02;14.80;;;12.20;;
54831;SDS011;40730;53.068;6.572;2022-08-11T06:10:33;16.02;;;11.00;;
54831;SDS011;40730;53.068;6.572;2022-08-11T06:13:01;13.05;;;11.18;;
54831;SDS011;40730;53.068;6.572;2022-08-11T06:15:30;11.77;;;9.82;;
54831;SDS011;40730;53.068;6.572;2022-08-11T06:17:58;15.20;;;9.98;;
54831;SDS011;40730;53.068;6.572;2022-08-11T06:20:27;12.77;;;9.60;;
54831;SDS011;40730;53.068;6.572;2022-08-11T06:23:02;14.48;;;9.52;;
54831;SDS011;40730;53.068;6.572;2022-08-11T06:25:30;11.68;;;8.77;;
54831;SDS011;40730;53.068;6.572;2022-08-11T06:27:59;13.25;;;8.23;;
54831;SDS011;40730;53.068;6.572;2022-08-11T06:30:39;11.65;;;8.15;;
54831;SDS011;40730;53.068;6.572;2022-08-11T06:33:08;12.68;;;7.85;;
54831;SDS011;40730;53.068;6.572;2022-08-11T06:41:12;9.75;;;6.13;;
54831;SDS011;40730;53.068;6.572;2022-08-11T06:43:59;7.68;;;6.15;;
54831;SDS011;40730;53.068;6.572;2022-08-11T06:46:30;7.30;;;5.38;;
54831;SDS011;40730;53.068;6.572;2022-08-11T06:49:01;6.88;;;5.43;;
54831;SDS011;40730;53.068;6.572;2022-08-11T06:51:27;6.90;;;5.90;;
54831;SDS011;40730;53.068;6.572;2022-08-11T06:53:53;6.47;;;5.20;;
54831;SDS011;40730;53.068;6.572;2022-08-11T06:56:34;6.70;;;4.75;;
54831;SDS011;40730;53.068;6.572;2022-08-11T06:59:20;6.47;;;3.85;;
54831;SDS011;40730;53.068;6.572;2022-08-11T07:02:08;6.47;;;3.53;;
54831;SDS011;40730;53.068;6.572;2022-08-11T07:04:46;4.07;;;3.50;;
54831;SDS011;40730;53.068;6.572;2022-08-11T07:07:34;7.07;;;4.50;;
54831;SDS011;40730;53.068;6.572;2022-08-11T07:13:28;9.15;;;3.30;;
54831;SDS011;40730;53.068;6.572;2022-08-11T07:16:15;4.68;;;2.80;;
54831;SDS011;40730;53.068;6.572;2022-08-11T07:18:46;3.63;;;2.90;;
54831;SDS011;40730;53.068;6.572;2022-08-11T07:21:31;4.80;;;2.85;;
54831;SDS011;40730;53.068;6.572;2022-08-11T07:24:25;2.38;;;2.17;;
54831;SDS011;40730;53.068;6.572;2022-08-11T07:27:13;2.55;;;2.15;;
54831;SDS011;40730;53.068;6.572;2022-08-11T07:30:02;3.47;;;1.90;;
54831;SDS011;40730;53.068;6.572;2022-08-11T07:32:32;3.25;;;1.90;;
54831;SDS011;40730;53.068;6.572;2022-08-11T07:35:08;5.50;;;2.30;;
54831;SDS011;40730;53.068;6.572;2022-08-11T07:37:46;3.65;;;1.77;;
54831;SDS011;40730;53.068;6.572;2022-08-11T07:40:18;4.43;;;1.20;;
54831;SDS011;40730;53.068;6.572;2022-08-11T07:42:47;5.70;;;1.30;;
54831;SDS011;40730;53.068;6.572;2022-08-11T07:45:13;2.83;;;1.02;;
54831;SDS011;40730;53.068;6.572;2022-08-11T07:47:58;3.85;;;1.23;;
54831;SDS011;40730;53.068;6.572;2022-08-11T07:50:43;2.13;;;1.17;;
54831;SDS011;40730;53.068;6.572;2022-08-11T07:53:29;3.15;;;1.15;;
54831;SDS011;40730;53.068;6.572;2022-08-11T07:55:57;4.78;;;1.00;;
54831;SDS011;40730;53.068;6.572;2022-08-11T07:58:26;1.60;;;1.08;;
54831;SDS011;40730;53.068;6.572;2022-08-11T08:01:16;3.15;;;0.93;;
54831;SDS011;40730;53.068;6.572;2022-08-11T08:04:03;5.55;;;1.20;;
54831;SDS011;40730;53.068;6.572;2022-08-11T08:06:49;3.42;;;0.85;;
54831;SDS011;40730;53.068;6.572;2022-08-11T08:09:34;1.92;;;0.82;;
54831;SDS011;40730;53.068;6.572;2022-08-11T08:12:19;3.17;;;1.00;;
54831;SDS011;40730;53.068;6.572;2022-08-11T08:15:06;3.17;;;0.88;;
54831;SDS011;40730;53.068;6.572;2022-08-11T08:17:53;3.03;;;1.42;;
54831;SDS011;40730;53.068;6.572;2022-08-11T08:20:26;4.78;;;0.70;;
54831;SDS011;40730;53.068;6.572;2022-08-11T08:22:57;3.60;;;1.08;;
54831;SDS011;40730;53.068;6.572;2022-08-11T08:25:25;4.45;;;0.70;;
54831;SDS011;40730;53.068;6.572;2022-08-11T08:27:58;2.17;;;0.60;;
54831;SDS011;40730;53.068;6.572;2022-08-11T08:30:26;4.65;;;0.88;;
54831;SDS011;40730;53.068;6.572;2022-08-11T08:33:11;2.28;;;0.60;;
54831;SDS011;40730;53.068;6.572;2022-08-11T08:35:39;3.97;;;0.73;;
54831;SDS011;40730;53.068;6.572;2022-08-11T08:38:06;3.45;;;0.85;;
54831;SDS011;40730;53.068;6.572;2022-08-11T08:40:32;2.42;;;0.60;;
54831;SDS011;40730;53.068;6.572;2022-08-11T08:43:06;5.15;;;0.57;;
54831;SDS011;40730;53.068;6.572;2022-08-11T08:45:36;3.35;;;0.50;;
54831;SDS011;40730;53.068;6.572;2022-08-11T08:48:05;0.88;;;0.30;;
54831;SDS011;40730;53.068;6.572;2022-08-11T08:50:36;2.47;;;0.40;;
54831;SDS011;40730;53.068;6.572;2022-08-11T08:53:26;2.08;;;0.50;;
54831;SDS011;40730;53.068;6.572;2022-08-11T08:55:57;1.98;;;0.30;;
54831;SDS011;40730;53.068;6.572;2022-08-11T08:58:25;3.33;;;0.47;;
54831;SDS011;40730;53.068;6.572;2022-08-11T09:00:52;2.60;;;0.38;;
54831;SDS011;40730;53.068;6.572;2022-08-11T09:03:19;1.60;;;0.30;;
54831;SDS011;40730;53.068;6.572;2022-08-11T09:05:46;2.17;;;0.40;;
54831;SDS011;40730;53.068;6.572;2022-08-11T09:08:13;5.13;;;0.75;;
54831;SDS011;40730;53.068;6.572;2022-08-11T09:10:44;2.25;;;0.50;;
54831;SDS011;40730;53.068;6.572;2022-08-11T09:13:31;3.17;;;0.38;;
54831;SDS011;40730;53.068;6.572;2022-08-11T09:15:57;5.53;;;0.40;;
54831;SDS011;40730;53.068;6.572;2022-08-11T09:18:23;6.82;;;0.47;;
54831;SDS011;40730;53.068;6.572;2022-08-11T09:20:49;3.40;;;0.30;;
54831;SDS011;40730;53.068;6.572;2022-08-11T09:23:15;6.43;;;0.63;;
54831;SDS011;40730;53.068;6.572;2022-08-11T09:25:59;5.22;;;0.82;;
54831;SDS011;40730;53.068;6.572;2022-08-11T09:28:45;3.47;;;0.40;;
54831;SDS011;40730;53.068;6.572;2022-08-11T09:31:13;3.13;;;0.40;;
54831;SDS011;40730;53.068;6.572;2022-08-11T09:33:40;1.70;;;0.40;;
54831;SDS011;40730;53.068;6.572;2022-08-11T09:36:07;3.13;;;0.35;;
54831;SDS011;40730;53.068;6.572;2022-08-11T09:38:52;1.48;;;0.40;;
54831;SDS011;40730;53.068;6.572;2022-08-11T09:41:38;2.17;;;0.30;;
54831;SDS011;40730;53.068;6.572;2022-08-11T09:44:06;4.32;;;0.57;;
54831;SDS011;40730;53.068;6.572;2022-08-11T09:46:51;3.65;;;0.30;;
54831;SDS011;40730;53.068;6.572;2022-08-11T09:49:19;2.22;;;0.32;;
54831;SDS011;40730;53.068;6.572;2022-08-11T09:51:48;4.55;;;0.60;;
54831;SDS011;40730;53.068;6.572;2022-08-11T09:54:15;5.15;;;0.38;;
54831;SDS011;40730;53.068;6.572;2022-08-11T09:56:42;3.90;;;0.30;;
54831;SDS011;40730;53.068;6.572;2022-08-11T09:59:28;4.38;;;0.30;;
54831;SDS011;40730;53.068;6.572;2022-08-11T10:01:56;1.60;;;0.20;;
54831;SDS011;40730;53.068;6.572;2022-08-11T10:04:25;1.65;;;0.35;;
54831;SDS011;40730;53.068;6.572;2022-08-11T10:06:58;3.95;;;0.30;;
54831;SDS011;40730;53.068;6.572;2022-08-11T10:09:26;5.95;;;0.30;;
54831;SDS011;40730;53.068;6.572;2022-08-11T10:11:55;4.28;;;0.40;;
54831;SDS011;40730;53.068;6.572;2022-08-11T10:14:23;2.40;;;0.30;;
54831;SDS011;40730;53.068;6.572;2022-08-11T10:17:08;2.63;;;0.50;;
54831;SDS011;40730;53.068;6.572;2022-08-11T10:19:35;4.45;;;0.30;;
54831;SDS011;40730;53.068;6.572;2022-08-11T10:22:02;1.60;;;0.38;;
54831;SDS011;40730;53.068;6.572;2022-08-11T10:24:47;2.47;;;0.30;;
54831;SDS011;40730;53.068;6.572;2022-08-11T10:27:32;1.95;;;0.20;;
54831;SDS011;40730;53.068;6.572;2022-08-11T10:29:59;3.63;;;0.40;;
54831;SDS011;40730;53.068;6.572;2022-08-11T10:32:43;2.00;;;0.27;;
54831;SDS011;40730;53.068;6.572;2022-08-11T10:35:28;2.78;;;0.85;;
54831;SDS011;40730;53.068;6.572;2022-08-11T10:37:56;2.35;;;0.30;;
54831;SDS011;40730;53.068;6.572;2022-08-11T10:40:23;4.47;;;0.30;;
54831;SDS011;40730;53.068;6.572;2022-08-11T10:42:50;3.72;;;0.30;;
54831;SDS011;40730;53.068;6.572;2022-08-11T10:45:30;4.18;;;0.50;;
54831;SDS011;40730;53.068;6.572;2022-08-11T10:48:18;2.53;;;0.40;;
54831;SDS011;40730;53.068;6.572;2022-08-11T10:50:48;2.45;;;0.30;;
54831;SDS011;40730;53.068;6.572;2022-08-11T10:53:34;1.17;;;0.22;;
54831;SDS011;40730;53.068;6.572;2022-08-11T10:56:21;4.40;;;0.30;;
54831;SDS011;40730;53.068;6.572;2022-08-11T10:59:06;3.22;;;0.30;;
54831;SDS011;40730;53.068;6.572;2022-08-11T11:01:33;1.00;;;0.20;;
54831;SDS011;40730;53.068;6.572;2022-08-11T11:04:24;2.97;;;0.30;;
54831;SDS011;40730;53.068;6.572;2022-08-11T11:09:41;3.45;;;0.38;;
54831;SDS011;40730;53.068;6.572;2022-08-11T11:14:58;2.83;;;0.28;;
54831;SDS011;40730;53.068;6.572;2022-08-11T11:17:46;1.48;;;0.20;;
54831;SDS011;40730;53.068;6.572;2022-08-11T11:20:22;2.15;;;0.30;;
54831;SDS011;40730;53.068;6.572;2022-08-11T11:22:52;2.42;;;0.40;;
54831;SDS011;40730;53.068;6.572;2022-08-11T11:25:22;2.58;;;0.30;;
54831;SDS011;40730;53.068;6.572;2022-08-11T11:30:45;0.50;;;0.20;;
54831;SDS011;40730;53.068;6.572;2022-08-11T11:36:24;1.95;;;0.57;;
54831;SDS011;40730;53.068;6.572;2022-08-11T11:41:20;0.60;;;0.30;;
54831;SDS011;40730;53.068;6.572;2022-08-11T11:43:54;0.93;;;0.30;;
54831;SDS011;40730;53.068;6.572;2022-08-11T11:46:23;2.97;;;0.20;;
54831;SDS011;40730;53.068;6.572;2022-08-11T11:48:55;0.60;;;0.20;;
54831;SDS011;40730;53.068;6.572;2022-08-11T11:51:23;2.80;;;0.20;;
54831;SDS011;40730;53.068;6.572;2022-08-11T11:53:50;3.33;;;0.20;;
54831;SDS011;40730;53.068;6.572;2022-08-11T11:56:16;5.50;;;0.20;;
54831;SDS011;40730;53.068;6.572;2022-08-11T11:58:45;2.83;;;0.20;;
54831;SDS011;40730;53.068;6.572;2022-08-11T12:01:31;1.27;;;0.20;;
54831;SDS011;40730;53.068;6.572;2022-08-11T12:03:57;0.93;;;0.20;;
54831;SDS011;40730;53.068;6.572;2022-08-11T12:06:24;1.52;;;0.20;;
54831;SDS011;40730;53.068;6.572;2022-08-11T12:08:52;1.23;;;0.20;;
54831;SDS011;40730;53.068;6.572;2022-08-11T12:11:20;1.30;;;0.25;;
54831;SDS011;40730;53.068;6.572;2022-08-11T12:14:07;1.65;;;0.30;;
54831;SDS011;40730;53.068;6.572;2022-08-11T12:16:35;3.00;;;0.25;;
54831;SDS011;40730;53.068;6.572;2022-08-11T12:19:04;1.45;;;0.20;;
54831;SDS011;40730;53.068;6.572;2022-08-11T12:21:33;1.25;;;0.20;;
54831;SDS011;40730;53.068;6.572;2022-08-11T12:24:00;2.42;;;0.20;;
54831;SDS011;40730;53.068;6.572;2022-08-11T12:29:30;1.10;;;0.30;;
54831;SDS011;40730;53.068;6.572;2022-08-11T12:31:58;3.40;;;0.35;;
54831;SDS011;40730;53.068;6.572;2022-08-11T12:34:25;1.45;;;0.20;;
54831;SDS011;40730;53.068;6.572;2022-08-11T12:39:21;1.55;;;0.22;;
54831;SDS011;40730;53.068;6.572;2022-08-11T12:42:09;2.67;;;0.25;;
54831;SDS011;40730;53.068;6.572;2022-08-11T12:44:56;1.13;;;0.20;;
54831;SDS011;40730;53.068;6.572;2022-08-11T12:47:49;1.65;;;0.20;;
54831;SDS011;40730;53.068;6.572;2022-08-11T12:50:35;0.98;;;0.20;;
54831;SDS011;40730;53.068;6.572;2022-08-11T12:53:21;0.65;;;0.20;;
54831;SDS011;40730;53.068;6.572;2022-08-11T12:55:51;0.65;;;0.20;;
54831;SDS011;40730;53.068;6.572;2022-08-11T12:58:38;2.65;;;0.20;;
54831;SDS011;40730;53.068;6.572;2022-08-11T13:01:05;2.97;;;0.20;;
54831;SDS011;40730;53.068;6.572;2022-08-11T13:03:50;3.40;;;0.25;;
54831;SDS011;40730;53.068;6.572;2022-08-11T13:06:34;2.40;;;0.30;;
54831;SDS011;40730;53.068;6.572;2022-08-11T13:09:01;1.40;;;0.20;;
54831;SDS011;40730;53.068;6.572;2022-08-11T13:11:28;2.03;;;0.20;;
54831;SDS011;40730;53.068;6.572;2022-08-11T13:14:14;1.92;;;0.30;;
54831;SDS011;40730;53.068;6.572;2022-08-11T13:16:41;1.15;;;0.20;;
54831;SDS011;40730;53.068;6.572;2022-08-11T13:19:27;4.55;;;0.50;;
54831;SDS011;40730;53.068;6.572;2022-08-11T13:21:53;1.73;;;0.20;;
54831;SDS011;40730;53.068;6.572;2022-08-11T13:24:21;1.73;;;0.30;;
54831;SDS011;40730;53.068;6.572;2022-08-11T13:26:48;1.80;;;0.20;;
54831;SDS011;40730;53.068;6.572;2022-08-11T13:29:19;1.10;;;0.20;;
54831;SDS011;40730;53.068;6.572;2022-08-11T13:31:46;1.05;;;0.20;;
54831;SDS011;40730;53.068;6.572;2022-08-11T13:34:13;1.02;;;0.20;;
54831;SDS011;40730;53.068;6.572;2022-08-11T13:36:41;1.17;;;0.20;;
54831;SDS011;40730;53.068;6.572;2022-08-11T13:39:07;5.25;;;0.20;;
54831;SDS011;40730;53.068;6.572;2022-08-11T13:41:34;1.15;;;0.30;;
54831;SDS011;40730;53.068;6.572;2022-08-11T13:44:05;2.45;;;0.30;;
54831;SDS011;40730;53.068;6.572;2022-08-11T13:46:33;3.33;;;0.30;;
54831;SDS011;40730;53.068;6.572;2022-08-11T13:48:59;3.97;;;0.47;;
54831;SDS011;40730;53.068;6.572;2022-08-11T13:51:25;2.50;;;0.20;;
54831;SDS011;40730;53.068;6.572;2022-08-11T13:53:58;5.13;;;0.28;;
54831;SDS011;40730;53.068;6.572;2022-08-11T13:56:35;1.55;;;0.25;;
54831;SDS011;40730;53.068;6.572;2022-08-11T13:59:04;2.50;;;0.20;;
54831;SDS011;40730;53.068;6.572;2022-08-11T14:01:32;0.90;;;0.20;;
54831;SDS011;40730;53.068;6.572;2022-08-11T14:04:08;2.00;;;0.20;;
54831;SDS011;40730;53.068;6.572;2022-08-11T14:06:38;2.42;;;0.30;;
54831;SDS011;40730;53.068;6.572;2022-08-11T14:09:09;5.68;;;0.30;;
54831;SDS011;40730;53.068;6.572;2022-08-11T14:11:36;2.47;;;0.25;;
54831;SDS011;40730;53.068;6.572;2022-08-11T14:14:25;2.22;;;0.20;;
54831;SDS011;40730;53.068;6.572;2022-08-11T14:16:57;1.40;;;0.20;;
54831;SDS011;40730;53.068;6.572;2022-08-11T14:19:29;1.60;;;0.20;;
54831;SDS011;40730;53.068;6.572;2022-08-11T14:21:58;2.85;;;0.30;;
54831;SDS011;40730;53.068;6.572;2022-08-11T14:24:39;0.88;;;0.20;;
54831;SDS011;40730;53.068;6.572;2022-08-11T14:27:07;2.90;;;0.20;;
54831;SDS011;40730;53.068;6.572;2022-08-11T14:29:35;3.20;;;0.20;;
54831;SDS011;40730;53.068;6.572;2022-08-11T14:32:05;2.63;;;0.20;;
54831;SDS011;40730;53.068;6.572;2022-08-11T14:34:33;2.17;;;0.20;;
54831;SDS011;40730;53.068;6.572;2022-08-11T14:37:04;3.25;;;0.20;;
54831;SDS011;40730;53.068;6.572;2022-08-11T14:39:37;2.17;;;0.20;;
54831;SDS011;40730;53.068;6.572;2022-08-11T14:42:09;2.95;;;0.22;;
54831;SDS011;40730;53.068;6.572;2022-08-11T14:44:56;0.60;;;0.20;;
54831;SDS011;40730;53.068;6.572;2022-08-11T14:47:32;1.08;;;0.20;;
54831;SDS011;40730;53.068;6.572;2022-08-11T14:49:59;2.00;;;0.70;;
54831;SDS011;40730;53.068;6.572;2022-08-11T14:52:26;1.20;;;0.20;;
54831;SDS011;40730;53.068;6.572;2022-08-11T14:54:55;1.88;;;0.20;;
54831;SDS011;40730;53.068;6.572;2022-08-11T14:57:40;1.40;;;0.30;;
54831;SDS011;40730;53.068;6.572;2022-08-11T15:00:07;3.55;;;0.20;;
54831;SDS011;40730;53.068;6.572;2022-08-11T15:02:37;2.88;;;0.40;;
54831;SDS011;40730;53.068;6.572;2022-08-11T15:05:22;2.50;;;0.30;;
54831;SDS011;40730;53.068;6.572;2022-08-11T15:07:50;5.88;;;0.30;;
54831;SDS011;40730;53.068;6.572;2022-08-11T15:10:17;1.88;;;0.40;;
54831;SDS011;40730;53.068;6.572;2022-08-11T15:12:44;2.40;;;0.40;;
54831;SDS011;40730;53.068;6.572;2022-08-11T15:15:10;10.15;;;0.90;;
54831;SDS011;40730;53.068;6.572;2022-08-11T15:17:56;3.72;;;0.50;;
54831;SDS011;40730;53.068;6.572;2022-08-11T15:20:25;1.83;;;0.40;;
54831;SDS011;40730;53.068;6.572;2022-08-11T15:23:10;1.98;;;0.40;;
54831;SDS011;40730;53.068;6.572;2022-08-11T15:25:58;3.38;;;0.40;;
54831;SDS011;40730;53.068;6.572;2022-08-11T15:28:28;1.65;;;0.30;;
54831;SDS011;40730;53.068;6.572;2022-08-11T15:31:14;3.25;;;0.30;;
54831;SDS011;40730;53.068;6.572;2022-08-11T15:34:01;1.63;;;0.38;;
54831;SDS011;40730;53.068;6.572;2022-08-11T15:36:48;3.80;;;0.40;;
54831;SDS011;40730;53.068;6.572;2022-08-11T15:42:24;0.75;;;0.22;;
54831;SDS011;40730;53.068;6.572;2022-08-11T15:45:08;3.30;;;0.30;;
54831;SDS011;40730;53.068;6.572;2022-08-11T15:47:54;3.88;;;0.30;;
54831;SDS011;40730;53.068;6.572;2022-08-11T15:50:24;1.33;;;0.32;;
54831;SDS011;40730;53.068;6.572;2022-08-11T15:55:24;2.63;;;0.30;;
54831;SDS011;40730;53.068;6.572;2022-08-11T15:57:54;2.08;;;0.30;;
54831;SDS011;40730;53.068;6.572;2022-08-11T16:00:40;2.53;;;0.30;;
54831;SDS011;40730;53.068;6.572;2022-08-11T16:03:27;4.15;;;0.30;;
54831;SDS011;40730;53.068;6.572;2022-08-11T16:06:14;3.10;;;0.32;;
54831;SDS011;40730;53.068;6.572;2022-08-11T16:08:41;3.50;;;0.30;;
54831;SDS011;40730;53.068;6.572;2022-08-11T16:11:08;2.70;;;0.30;;
54831;SDS011;40730;53.068;6.572;2022-08-11T16:13:35;1.00;;;0.30;;
54831;SDS011;40730;53.068;6.572;2022-08-11T16:16:03;2.20;;;0.30;;
54831;SDS011;40730;53.068;6.572;2022-08-11T16:18:50;2.80;;;0.63;;
54831;SDS011;40730;53.068;6.572;2022-08-11T16:21:25;1.95;;;0.40;;
54831;SDS011;40730;53.068;6.572;2022-08-11T16:23:54;7.35;;;0.30;;
54831;SDS011;40730;53.068;6.572;2022-08-11T16:26:23;1.23;;;0.30;;
54831;SDS011;40730;53.068;6.572;2022-08-11T16:28:54;2.80;;;0.30;;
54831;SDS011;40730;53.068;6.572;2022-08-11T16:31:22;8.25;;;0.43;;
54831;SDS011;40730;53.068;6.572;2022-08-11T16:33:49;2.00;;;0.40;;
54831;SDS011;40730;53.068;6.572;2022-08-11T16:36:17;2.42;;;0.30;;
54831;SDS011;40730;53.068;6.572;2022-08-11T16:39:04;2.35;;;0.40;;
54831;SDS011;40730;53.068;6.572;2022-08-11T16:41:33;4.13;;;0.20;;
54831;SDS011;40730;53.068;6.572;2022-08-11T16:44:19;3.38;;;0.30;;
54831;SDS011;40730;53.068;6.572;2022-08-11T16:47:05;3.83;;;0.50;;
54831;SDS011;40730;53.068;6.572;2022-08-11T16:49:38;3.03;;;0.30;;
54831;SDS011;40730;53.068;6.572;2022-08-11T16:52:10;4.03;;;0.40;;
54831;SDS011;40730;53.068;6.572;2022-08-11T16:54:37;3.42;;;0.45;;
54831;SDS011;40730;53.068;6.572;2022-08-11T16:57:04;2.38;;;0.40;;
54831;SDS011;40730;53.068;6.572;2022-08-11T16:59:52;1.80;;;0.40;;
54831;SDS011;40730;53.068;6.572;2022-08-11T17:02:19;2.35;;;0.32;;
54831;SDS011;40730;53.068;6.572;2022-08-11T17:05:10;5.40;;;0.50;;
54831;SDS011;40730;53.068;6.572;2022-08-11T17:07:59;5.20;;;0.40;;
54831;SDS011;40730;53.068;6.572;2022-08-11T17:10:52;5.30;;;0.50;;
54831;SDS011;40730;53.068;6.572;2022-08-11T17:13:46;2.08;;;0.40;;
54831;SDS011;40730;53.068;6.572;2022-08-11T17:16:14;2.25;;;0.40;;
54831;SDS011;40730;53.068;6.572;2022-08-11T17:21:24;1.45;;;0.43;;
54831;SDS011;40730;53.068;6.572;2022-08-11T17:23:58;1.50;;;0.60;;
54831;SDS011;40730;53.068;6.572;2022-08-11T17:26:32;1.42;;;0.40;;
54831;SDS011;40730;53.068;6.572;2022-08-11T17:32:06;2.67;;;0.80;;
54831;SDS011;40730;53.068;6.572;2022-08-11T17:35:00;4.68;;;0.30;;
54831;SDS011;40730;53.068;6.572;2022-08-11T17:37:55;3.20;;;0.38;;
54831;SDS011;40730;53.068;6.572;2022-08-11T17:40:21;2.15;;;0.40;;
54831;SDS011;40730;53.068;6.572;2022-08-11T17:42:51;3.00;;;0.50;;
54831;SDS011;40730;53.068;6.572;2022-08-11T17:45:41;1.73;;;0.30;;
54831;SDS011;40730;53.068;6.572;2022-08-11T17:48:27;0.95;;;0.43;;
54831;SDS011;40730;53.068;6.572;2022-08-11T17:50:59;0.93;;;0.30;;
54831;SDS011;40730;53.068;6.572;2022-08-11T17:53:29;3.33;;;0.30;;
54831;SDS011;40730;53.068;6.572;2022-08-11T17:56:17;4.25;;;0.55;;
54831;SDS011;40730;53.068;6.572;2022-08-11T17:59:04;1.95;;;0.40;;
54831;SDS011;40730;53.068;6.572;2022-08-11T18:01:51;3.33;;;0.55;;
54831;SDS011;40730;53.068;6.572;2022-08-11T18:04:20;4.20;;;0.32;;
54831;SDS011;40730;53.068;6.572;2022-08-11T18:06:47;3.47;;;0.40;;
54831;SDS011;40730;53.068;6.572;2022-08-11T18:09:16;3.55;;;0.40;;
54831;SDS011;40730;53.068;6.572;2022-08-11T18:12:04;4.20;;;0.30;;
54831;SDS011;40730;53.068;6.572;2022-08-11T18:14:51;2.55;;;0.30;;
54831;SDS011;40730;53.068;6.572;2022-08-11T18:17:38;3.08;;;0.50;;
54831;SDS011;40730;53.068;6.572;2022-08-11T18:20:23;2.90;;;0.50;;
54831;SDS011;40730;53.068;6.572;2022-08-11T18:23:13;3.53;;;0.50;;
54831;SDS011;40730;53.068;6.572;2022-08-11T18:26:02;2.20;;;0.60;;
54831;SDS011;40730;53.068;6.572;2022-08-11T18:28:49;2.13;;;0.30;;
54831;SDS011;40730;53.068;6.572;2022-08-11T18:31:37;5.53;;;1.10;;
54831;SDS011;40730;53.068;6.572;2022-08-11T18:34:28;2.80;;;0.30;;
54831;SDS011;40730;53.068;6.572;2022-08-11T18:37:18;2.55;;;0.50;;
54831;SDS011;40730;53.068;6.572;2022-08-11T18:40:19;5.53;;;0.80;;
54831;SDS011;40730;53.068;6.572;2022-08-11T18:43:09;3.67;;;0.40;;
54831;SDS011;40730;53.068;6.572;2022-08-11T18:45:56;2.28;;;0.40;;
54831;SDS011;40730;53.068;6.572;2022-08-11T18:48:46;3.33;;;0.43;;
54831;SDS011;40730;53.068;6.572;2022-08-11T18:51:34;4.28;;;0.30;;
54831;SDS011;40730;53.068;6.572;2022-08-11T18:54:21;3.72;;;0.40;;
54831;SDS011;40730;53.068;6.572;2022-08-11T18:57:08;5.40;;;0.30;;
54831;SDS011;40730;53.068;6.572;2022-08-11T18:59:55;3.58;;;0.45;;
54831;SDS011;40730;53.068;6.572;2022-08-11T19:02:57;1.67;;;0.30;;
54831;SDS011;40730;53.068;6.572;2022-08-11T19:05:43;2.28;;;0.38;;
54831;SDS011;40730;53.068;6.572;2022-08-11T19:08:36;3.05;;;0.57;;